sensor_id;sensor_type;location;lat;lon;timestamp;P1;durP1;ratioP1;P2;durP2;ratioP2
20251;SDS011;10284;58.364;15.550;2024-03-25T00:01:04;14.43;;;6.35;;
20251;SDS011;10284;58.364;15.550;2024-03-25T00:03:30;13.38;;;7.13;;
20251;SDS011;10284;58.364;15.550;2024-03-25T00:05:55;14.68;;;6.85;;
20251;SDS011;10284;58.364;15.550;2024-03-25T00:08:22;16.52;;;7.35;;
20251;SDS011;10284;58.364;15.550;2024-03-25T00:10:47;15.27;;;7.20;;
20251;SDS011;10284;58.364;15.550;2024-03-25T00:13:12;17.02;;;7.78;;
20251;SDS011;10284;58.364;15.550;2024-03-25T00:15:38;14.25;;;7.03;;
20251;SDS011;10284;58.364;15.550;2024-03-25T00:18:04;16.85;;;7.65;;
20251;SDS011;10284;58.364;15.550;2024-03-25T00:20:29;17.08;;;7.47;;
20251;SDS011;10284;58.364;15.550;2024-03-25T00:22:55;17.48;;;8.10;;
20251;SDS011;10284;58.364;15.550;2024-03-25T00:25:20;12.48;;;6.68;;
20251;SDS011;10284;58.364;15.550;2024-03-25T00:27:45;13.45;;;7.50;;
20251;SDS011;10284;58.364;15.550;2024-03-25T00:30:11;16.17;;;7.30;;
20251;SDS011;10284;58.364;15.550;2024-03-25T00:32:37;15.68;;;6.72;;
20251;SDS011;10284;58.364;15.550;2024-03-25T00:35:02;15.75;;;7.15;;
20251;SDS011;10284;58.364;15.550;2024-03-25T00:37:28;16.73;;;6.72;;
20251;SDS011;10284;58.364;15.550;2024-03-25T00:39:53;12.30;;;6.55;;
20251;SDS011;10284;58.364;15.550;2024-03-25T00:42:19;12.10;;;6.30;;
20251;SDS011;10284;58.364;15.550;2024-03-25T00:44:44;15.10;;;6.70;;
20251;SDS011;10284;58.364;15.550;2024-03-25T00:47:10;15.02;;;7.22;;
20251;SDS011;10284;58.364;15.550;2024-03-25T00:49:35;17.55;;;7.35;;
20251;SDS011;10284;58.364;15.550;2024-03-25T00:52:01;16.75;;;7.10;;
20251;SDS011;10284;58.364;15.550;2024-03-25T00:54:27;14.60;;;7.30;;
20251;SDS011;10284;58.364;15.550;2024-03-25T00:56:52;18.00;;;7.20;;
20251;SDS011;10284;58.364;15.550;2024-03-25T00:59:18;18.13;;;6.70;;
20251;SDS011;10284;58.364;15.550;2024-03-25T01:01:44;14.85;;;6.38;;
20251;SDS011;10284;58.364;15.550;2024-03-25T01:04:09;10.48;;;6.25;;
20251;SDS011;10284;58.364;15.550;2024-03-25T01:06:35;11.68;;;6.10;;
20251;SDS011;10284;58.364;15.550;2024-03-25T01:09:00;13.98;;;6.57;;
20251;SDS011;10284;58.364;15.550;2024-03-25T01:11:26;12.40;;;6.00;;
20251;SDS011;10284;58.364;15.550;2024-03-25T01:13:51;14.80;;;6.47;;
20251;SDS011;10284;58.364;15.550;2024-03-25T01:16:16;12.25;;;6.60;;
20251;SDS011;10284;58.364;15.550;2024-03-25T01:18:42;11.38;;;6.13;;
20251;SDS011;10284;58.364;15.550;2024-03-25T01:21:08;14.07;;;6.32;;
20251;SDS011;10284;58.364;15.550;2024-03-25T01:23:33;16.15;;;6.40;;
20251;SDS011;10284;58.364;15.550;2024-03-25T01:25:58;11.60;;;5.97;;
20251;SDS011;10284;58.364;15.550;2024-03-25T01:28:24;10.85;;;5.45;;
20251;SDS011;10284;58.364;15.550;2024-03-25T01:30:49;12.60;;;4.97;;
20251;SDS011;10284;58.364;15.550;2024-03-25T01:33:14;11.00;;;5.22;;
20251;SDS011;10284;58.364;15.550;2024-03-25T01:35:40;11.63;;;5.85;;
20251;SDS011;10284;58.364;15.550;2024-03-25T01:38:05;13.38;;;5.55;;
20251;SDS011;10284;58.364;15.550;2024-03-25T01:40:31;11.07;;;5.93;;
20251;SDS011;10284;58.364;15.550;2024-03-25T01:45:25;9.45;;;4.97;;
20251;SDS011;10284;58.364;15.550;2024-03-25T01:47:54;12.25;;;4.88;;
20251;SDS011;10284;58.364;15.550;2024-03-25T01:50:21;12.00;;;5.75;;
20251;SDS011;10284;58.364;15.550;2024-03-25T01:52:47;15.75;;;4.70;;
20251;SDS011;10284;58.364;15.550;2024-03-25T01:55:13;12.65;;;4.63;;
20251;SDS011;10284;58.364;15.550;2024-03-25T01:57:45;8.32;;;4.05;;
20251;SDS011;10284;58.364;15.550;2024-03-25T02:00:11;7.93;;;4.35;;
20251;SDS011;10284;58.364;15.550;2024-03-25T02:02:39;10.23;;;4.75;;
20251;SDS011;10284;58.364;15.550;2024-03-25T02:05:10;11.93;;;4.60;;
20251;SDS011;10284;58.364;15.550;2024-03-25T02:07:36;11.05;;;4.70;;
20251;SDS011;10284;58.364;15.550;2024-03-25T02:10:06;8.13;;;4.28;;
20251;SDS011;10284;58.364;15.550;2024-03-25T02:12:34;9.63;;;4.05;;
20251;SDS011;10284;58.364;15.550;2024-03-25T02:15:00;6.90;;;3.92;;
20251;SDS011;10284;58.364;15.550;2024-03-25T02:17:26;14.10;;;4.32;;
20251;SDS011;10284;58.364;15.550;2024-03-25T02:19:51;10.43;;;3.92;;
20251;SDS011;10284;58.364;15.550;2024-03-25T02:22:17;12.20;;;4.85;;
20251;SDS011;10284;58.364;15.550;2024-03-25T02:24:43;11.40;;;4.18;;
20251;SDS011;10284;58.364;15.550;2024-03-25T02:27:10;8.40;;;4.07;;
20251;SDS011;10284;58.364;15.550;2024-03-25T02:29:39;8.80;;;4.07;;
20251;SDS011;10284;58.364;15.550;2024-03-25T02:32:05;10.40;;;4.25;;
20251;SDS011;10284;58.364;15.550;2024-03-25T02:34:35;7.95;;;3.63;;
20251;SDS011;10284;58.364;15.550;2024-03-25T02:37:11;9.02;;;3.95;;
20251;SDS011;10284;58.364;15.550;2024-03-25T02:39:36;9.05;;;4.00;;
20251;SDS011;10284;58.364;15.550;2024-03-25T02:42:02;9.88;;;4.30;;
20251;SDS011;10284;58.364;15.550;2024-03-25T02:44:27;6.63;;;3.65;;
20251;SDS011;10284;58.364;15.550;2024-03-25T02:46:53;7.45;;;3.78;;
20251;SDS011;10284;58.364;15.550;2024-03-25T02:49:18;9.10;;;3.55;;
20251;SDS011;10284;58.364;15.550;2024-03-25T02:51:44;10.73;;;3.97;;
20251;SDS011;10284;58.364;15.550;2024-03-25T02:54:09;7.40;;;3.35;;
20251;SDS011;10284;58.364;15.550;2024-03-25T02:56:34;9.38;;;4.00;;
20251;SDS011;10284;58.364;15.550;2024-03-25T02:59:00;12.07;;;4.35;;
20251;SDS011;10284;58.364;15.550;2024-03-25T03:01:26;5.70;;;3.28;;
20251;SDS011;10284;58.364;15.550;2024-03-25T03:03:51;11.18;;;4.00;;
20251;SDS011;10284;58.364;15.550;2024-03-25T03:06:17;10.30;;;4.50;;
20251;SDS011;10284;58.364;15.550;2024-03-25T03:08:43;9.63;;;3.83;;
20251;SDS011;10284;58.364;15.550;2024-03-25T03:11:09;7.90;;;3.75;;
20251;SDS011;10284;58.364;15.550;2024-03-25T03:13:34;8.85;;;3.90;;
20251;SDS011;10284;58.364;15.550;2024-03-25T03:16:00;8.48;;;3.38;;
20251;SDS011;10284;58.364;15.550;2024-03-25T03:18:25;11.43;;;3.95;;
20251;SDS011;10284;58.364;15.550;2024-03-25T03:20:50;6.95;;;3.42;;
20251;SDS011;10284;58.364;15.550;2024-03-25T03:23:16;6.10;;;3.65;;
20251;SDS011;10284;58.364;15.550;2024-03-25T03:25:42;8.85;;;3.97;;
20251;SDS011;10284;58.364;15.550;2024-03-25T03:28:07;12.30;;;4.05;;
20251;SDS011;10284;58.364;15.550;2024-03-25T03:30:33;9.95;;;3.70;;
20251;SDS011;10284;58.364;15.550;2024-03-25T03:32:58;7.97;;;3.58;;
20251;SDS011;10284;58.364;15.550;2024-03-25T03:35:24;8.30;;;3.28;;
20251;SDS011;10284;58.364;15.550;2024-03-25T03:37:49;9.90;;;3.70;;
20251;SDS011;10284;58.364;15.550;2024-03-25T03:40:14;7.32;;;4.05;;
20251;SDS011;10284;58.364;15.550;2024-03-25T03:42:40;6.95;;;3.17;;
20251;SDS011;10284;58.364;15.550;2024-03-25T03:45:06;9.95;;;3.95;;
20251;SDS011;10284;58.364;15.550;2024-03-25T03:47:33;7.03;;;3.33;;
20251;SDS011;10284;58.364;15.550;2024-03-25T03:49:58;5.78;;;3.38;;
20251;SDS011;10284;58.364;15.550;2024-03-25T03:52:24;9.23;;;3.90;;
20251;SDS011;10284;58.364;15.550;2024-03-25T03:54:49;7.30;;;3.78;;
20251;SDS011;10284;58.364;15.550;2024-03-25T03:57:15;7.47;;;3.55;;
20251;SDS011;10284;58.364;15.550;2024-03-25T03:59:40;6.30;;;3.78;;
20251;SDS011;10284;58.364;15.550;2024-03-25T04:02:05;6.32;;;3.72;;
20251;SDS011;10284;58.364;15.550;2024-03-25T04:04:31;8.23;;;4.13;;
20251;SDS011;10284;58.364;15.550;2024-03-25T04:06:56;9.07;;;4.20;;
20251;SDS011;10284;58.364;15.550;2024-03-25T04:09:21;10.80;;;4.20;;
20251;SDS011;10284;58.364;15.550;2024-03-25T04:11:48;7.85;;;4.30;;
20251;SDS011;10284;58.364;15.550;2024-03-25T04:14:14;8.15;;;4.30;;
20251;SDS011;10284;58.364;15.550;2024-03-25T04:16:40;6.18;;;3.38;;
20251;SDS011;10284;58.364;15.550;2024-03-25T04:19:05;5.25;;;3.50;;
20251;SDS011;10284;58.364;15.550;2024-03-25T04:21:30;6.68;;;3.72;;
20251;SDS011;10284;58.364;15.550;2024-03-25T04:23:56;6.22;;;4.00;;
20251;SDS011;10284;58.364;15.550;2024-03-25T04:26:21;7.95;;;3.85;;
20251;SDS011;10284;58.364;15.550;2024-03-25T04:28:46;10.13;;;3.80;;
20251;SDS011;10284;58.364;15.550;2024-03-25T04:31:12;6.55;;;3.90;;
20251;SDS011;10284;58.364;15.550;2024-03-25T04:33:38;7.50;;;3.70;;
20251;SDS011;10284;58.364;15.550;2024-03-25T04:36:03;7.50;;;3.85;;
20251;SDS011;10284;58.364;15.550;2024-03-25T04:38:29;6.70;;;3.67;;
20251;SDS011;10284;58.364;15.550;2024-03-25T04:40:54;6.75;;;3.92;;
20251;SDS011;10284;58.364;15.550;2024-03-25T04:43:19;5.97;;;3.78;;
20251;SDS011;10284;58.364;15.550;2024-03-25T04:45:45;5.78;;;3.90;;
20251;SDS011;10284;58.364;15.550;2024-03-25T04:48:11;7.00;;;3.95;;
20251;SDS011;10284;58.364;15.550;2024-03-25T04:50:36;7.60;;;3.65;;
20251;SDS011;10284;58.364;15.550;2024-03-25T04:53:02;5.30;;;3.67;;
20251;SDS011;10284;58.364;15.550;2024-03-25T04:55:27;7.95;;;3.45;;
20251;SDS011;10284;58.364;15.550;2024-03-25T04:57:52;5.80;;;3.35;;
20251;SDS011;10284;58.364;15.550;2024-03-25T05:00:18;5.78;;;3.20;;
20251;SDS011;10284;58.364;15.550;2024-03-25T05:02:43;4.97;;;3.10;;
20251;SDS011;10284;58.364;15.550;2024-03-25T05:05:09;5.40;;;3.15;;
20251;SDS011;10284;58.364;15.550;2024-03-25T05:07:34;6.60;;;3.28;;
20251;SDS011;10284;58.364;15.550;2024-03-25T05:10:00;4.90;;;2.95;;
20251;SDS011;10284;58.364;15.550;2024-03-25T05:12:26;4.43;;;2.90;;
20251;SDS011;10284;58.364;15.550;2024-03-25T05:14:58;8.38;;;3.40;;
20251;SDS011;10284;58.364;15.550;2024-03-25T05:17:23;8.15;;;3.08;;
20251;SDS011;10284;58.364;15.550;2024-03-25T05:19:49;4.30;;;2.72;;
20251;SDS011;10284;58.364;15.550;2024-03-25T05:22:15;4.85;;;2.90;;
20251;SDS011;10284;58.364;15.550;2024-03-25T05:24:41;3.65;;;2.75;;
20251;SDS011;10284;58.364;15.550;2024-03-25T05:27:06;3.83;;;2.72;;
20251;SDS011;10284;58.364;15.550;2024-03-25T05:29:32;4.15;;;2.60;;
20251;SDS011;10284;58.364;15.550;2024-03-25T05:31:58;3.92;;;2.60;;
20251;SDS011;10284;58.364;15.550;2024-03-25T05:34:24;5.55;;;2.58;;
20251;SDS011;10284;58.364;15.550;2024-03-25T05:36:51;6.22;;;3.00;;
20251;SDS011;10284;58.364;15.550;2024-03-25T05:39:16;4.93;;;2.72;;
20251;SDS011;10284;58.364;15.550;2024-03-25T05:41:42;5.05;;;2.72;;
20251;SDS011;10284;58.364;15.550;2024-03-25T05:44:07;7.85;;;3.25;;
20251;SDS011;10284;58.364;15.550;2024-03-25T05:46:32;5.40;;;2.75;;
20251;SDS011;10284;58.364;15.550;2024-03-25T05:49:00;6.22;;;3.10;;
20251;SDS011;10284;58.364;15.550;2024-03-25T05:51:27;4.95;;;2.90;;
20251;SDS011;10284;58.364;15.550;2024-03-25T05:53:52;3.80;;;2.80;;
20251;SDS011;10284;58.364;15.550;2024-03-25T05:56:18;7.25;;;3.03;;
20251;SDS011;10284;58.364;15.550;2024-03-25T05:58:43;4.78;;;2.78;;
20251;SDS011;10284;58.364;15.550;2024-03-25T06:01:09;4.65;;;2.80;;
20251;SDS011;10284;58.364;15.550;2024-03-25T06:03:34;7.97;;;2.85;;
20251;SDS011;10284;58.364;15.550;2024-03-25T06:05:59;3.03;;;2.67;;
20251;SDS011;10284;58.364;15.550;2024-03-25T06:08:26;5.32;;;3.28;;
20251;SDS011;10284;58.364;15.550;2024-03-25T06:10:51;4.68;;;2.80;;
20251;SDS011;10284;58.364;15.550;2024-03-25T06:13:17;6.60;;;2.55;;
20251;SDS011;10284;58.364;15.550;2024-03-25T06:15:43;3.95;;;2.83;;
20251;SDS011;10284;58.364;15.550;2024-03-25T06:18:08;4.60;;;2.95;;
20251;SDS011;10284;58.364;15.550;2024-03-25T06:20:34;4.60;;;2.90;;
20251;SDS011;10284;58.364;15.550;2024-03-25T06:22:59;6.82;;;3.25;;
20251;SDS011;10284;58.364;15.550;2024-03-25T06:25:25;6.57;;;4.18;;
20251;SDS011;10284;58.364;15.550;2024-03-25T06:27:50;7.05;;;2.95;;
20251;SDS011;10284;58.364;15.550;2024-03-25T06:30:15;11.18;;;4.45;;
20251;SDS011;10284;58.364;15.550;2024-03-25T06:32:59;7.53;;;3.38;;
20251;SDS011;10284;58.364;15.550;2024-03-25T06:35:43;4.97;;;2.90;;
20251;SDS011;10284;58.364;15.550;2024-03-25T06:38:09;6.45;;;3.60;;
20251;SDS011;10284;58.364;15.550;2024-03-25T06:40:35;6.35;;;3.30;;
20251;SDS011;10284;58.364;15.550;2024-03-25T06:43:01;4.13;;;2.50;;
20251;SDS011;10284;58.364;15.550;2024-03-25T06:45:26;4.65;;;2.58;;
20251;SDS011;10284;58.364;15.550;2024-03-25T06:47:51;7.78;;;3.75;;
20251;SDS011;10284;58.364;15.550;2024-03-25T06:50:17;3.50;;;2.13;;
20251;SDS011;10284;58.364;15.550;2024-03-25T06:52:42;7.63;;;4.25;;
20251;SDS011;10284;58.364;15.550;2024-03-25T06:55:08;4.40;;;2.63;;
20251;SDS011;10284;58.364;15.550;2024-03-25T06:57:33;5.38;;;3.03;;
20251;SDS011;10284;58.364;15.550;2024-03-25T06:59:58;5.53;;;2.40;;
20251;SDS011;10284;58.364;15.550;2024-03-25T07:02:24;2.40;;;2.08;;
20251;SDS011;10284;58.364;15.550;2024-03-25T07:04:49;3.95;;;2.13;;
20251;SDS011;10284;58.364;15.550;2024-03-25T07:07:15;5.07;;;2.63;;
20251;SDS011;10284;58.364;15.550;2024-03-25T07:09:40;6.68;;;2.47;;
20251;SDS011;10284;58.364;15.550;2024-03-25T07:12:06;6.30;;;2.10;;
20251;SDS011;10284;58.364;15.550;2024-03-25T07:14:32;4.10;;;2.38;;
20251;SDS011;10284;58.364;15.550;2024-03-25T07:16:57;4.70;;;2.30;;
20251;SDS011;10284;58.364;15.550;2024-03-25T07:19:22;3.88;;;2.03;;
20251;SDS011;10284;58.364;15.550;2024-03-25T07:21:48;5.13;;;2.08;;
20251;SDS011;10284;58.364;15.550;2024-03-25T07:24:13;4.88;;;2.15;;
20251;SDS011;10284;58.364;15.550;2024-03-25T07:26:39;3.05;;;2.13;;
20251;SDS011;10284;58.364;15.550;2024-03-25T07:29:04;4.95;;;2.20;;
20251;SDS011;10284;58.364;15.550;2024-03-25T07:31:29;5.05;;;2.00;;
20251;SDS011;10284;58.364;15.550;2024-03-25T07:33:55;4.00;;;2.22;;
20251;SDS011;10284;58.364;15.550;2024-03-25T07:36:20;5.22;;;2.20;;
20251;SDS011;10284;58.364;15.550;2024-03-25T07:38:45;3.50;;;2.50;;
20251;SDS011;10284;58.364;15.550;2024-03-25T07:41:11;3.15;;;2.08;;
20251;SDS011;10284;58.364;15.550;2024-03-25T07:43:36;4.97;;;2.45;;
20251;SDS011;10284;58.364;15.550;2024-03-25T07:46:01;5.10;;;2.25;;
20251;SDS011;10284;58.364;15.550;2024-03-25T07:48:27;2.83;;;2.13;;
20251;SDS011;10284;58.364;15.550;2024-03-25T07:50:52;5.13;;;2.33;;
20251;SDS011;10284;58.364;15.550;2024-03-25T07:53:18;3.53;;;2.03;;
20251;SDS011;10284;58.364;15.550;2024-03-25T07:55:43;3.05;;;2.13;;
20251;SDS011;10284;58.364;15.550;2024-03-25T07:58:08;4.13;;;2.28;;
20251;SDS011;10284;58.364;15.550;2024-03-25T08:00:34;3.95;;;2.10;;
20251;SDS011;10284;58.364;15.550;2024-03-25T08:02:59;4.32;;;2.35;;
20251;SDS011;10284;58.364;15.550;2024-03-25T08:05:25;7.43;;;2.75;;
20251;SDS011;10284;58.364;15.550;2024-03-25T08:07:50;5.03;;;2.35;;
20251;SDS011;10284;58.364;15.550;2024-03-25T08:10:16;2.95;;;2.17;;
20251;SDS011;10284;58.364;15.550;2024-03-25T08:12:41;3.55;;;1.85;;
20251;SDS011;10284;58.364;15.550;2024-03-25T08:15:07;7.78;;;2.25;;
20251;SDS011;10284;58.364;15.550;2024-03-25T08:17:33;3.05;;;2.33;;
20251;SDS011;10284;58.364;15.550;2024-03-25T08:19:58;3.33;;;2.00;;
20251;SDS011;10284;58.364;15.550;2024-03-25T08:22:23;2.13;;;1.90;;
20251;SDS011;10284;58.364;15.550;2024-03-25T08:24:49;2.83;;;1.83;;
20251;SDS011;10284;58.364;15.550;2024-03-25T08:27:14;4.97;;;2.20;;
20251;SDS011;10284;58.364;15.550;2024-03-25T08:29:40;6.70;;;2.15;;
20251;SDS011;10284;58.364;15.550;2024-03-25T08:32:05;2.28;;;1.90;;
20251;SDS011;10284;58.364;15.550;2024-03-25T08:34:31;3.78;;;1.95;;
20251;SDS011;10284;58.364;15.550;2024-03-25T08:36:56;5.82;;;2.28;;
20251;SDS011;10284;58.364;15.550;2024-03-25T08:39:22;4.38;;;1.95;;
20251;SDS011;10284;58.364;15.550;2024-03-25T08:41:47;7.63;;;2.05;;
20251;SDS011;10284;58.364;15.550;2024-03-25T08:44:13;3.63;;;2.10;;
20251;SDS011;10284;58.364;15.550;2024-03-25T08:46:38;3.05;;;2.10;;
20251;SDS011;10284;58.364;15.550;2024-03-25T08:49:04;3.05;;;1.75;;
20251;SDS011;10284;58.364;15.550;2024-03-25T08:51:29;7.13;;;2.38;;
20251;SDS011;10284;58.364;15.550;2024-03-25T08:53:55;4.25;;;2.22;;
20251;SDS011;10284;58.364;15.550;2024-03-25T08:56:20;4.25;;;2.22;;
20251;SDS011;10284;58.364;15.550;2024-03-25T08:58:46;5.18;;;2.00;;
20251;SDS011;10284;58.364;15.550;2024-03-25T09:01:11;4.88;;;1.80;;
20251;SDS011;10284;58.364;15.550;2024-03-25T09:03:39;4.07;;;2.00;;
20251;SDS011;10284;58.364;15.550;2024-03-25T09:06:05;5.75;;;2.05;;
20251;SDS011;10284;58.364;15.550;2024-03-25T09:08:32;3.30;;;2.17;;
20251;SDS011;10284;58.364;15.550;2024-03-25T09:11:17;4.07;;;1.80;;
20251;SDS011;10284;58.364;15.550;2024-03-25T09:13:43;3.92;;;1.92;;
20251;SDS011;10284;58.364;15.550;2024-03-25T09:16:08;4.93;;;1.90;;
20251;SDS011;10284;58.364;15.550;2024-03-25T09:18:33;3.17;;;1.95;;
20251;SDS011;10284;58.364;15.550;2024-03-25T09:20:59;2.53;;;1.77;;
20251;SDS011;10284;58.364;15.550;2024-03-25T09:23:24;3.72;;;1.70;;
20251;SDS011;10284;58.364;15.550;2024-03-25T09:25:53;4.22;;;1.73;;
20251;SDS011;10284;58.364;15.550;2024-03-25T09:28:19;3.50;;;1.80;;
20251;SDS011;10284;58.364;15.550;2024-03-25T09:30:44;4.30;;;1.75;;
20251;SDS011;10284;58.364;15.550;2024-03-25T09:33:10;2.60;;;1.90;;
20251;SDS011;10284;58.364;15.550;2024-03-25T09:35:35;3.22;;;1.92;;
20251;SDS011;10284;58.364;15.550;2024-03-25T09:38:02;4.22;;;2.10;;
20251;SDS011;10284;58.364;15.550;2024-03-25T09:40:27;3.35;;;1.88;;
20251;SDS011;10284;58.364;15.550;2024-03-25T09:42:57;5.45;;;2.25;;
20251;SDS011;10284;58.364;15.550;2024-03-25T09:45:26;4.38;;;2.00;;
20251;SDS011;10284;58.364;15.550;2024-03-25T09:47:52;7.38;;;2.08;;
20251;SDS011;10284;58.364;15.550;2024-03-25T09:50:19;2.78;;;1.63;;
20251;SDS011;10284;58.364;15.550;2024-03-25T09:52:47;3.22;;;2.67;;
20251;SDS011;10284;58.364;15.550;2024-03-25T09:55:13;3.63;;;1.90;;
20251;SDS011;10284;58.364;15.550;2024-03-25T09:57:39;3.90;;;2.15;;
20251;SDS011;10284;58.364;15.550;2024-03-25T10:00:07;3.53;;;1.80;;
20251;SDS011;10284;58.364;15.550;2024-03-25T10:02:34;8.30;;;2.15;;
20251;SDS011;10284;58.364;15.550;2024-03-25T10:05:01;3.92;;;2.03;;
20251;SDS011;10284;58.364;15.550;2024-03-25T10:07:28;4.75;;;2.10;;
20251;SDS011;10284;58.364;15.550;2024-03-25T10:09:53;5.18;;;2.30;;
20251;SDS011;10284;58.364;15.550;2024-03-25T10:12:19;4.13;;;2.05;;
20251;SDS011;10284;58.364;15.550;2024-03-25T10:14:44;2.55;;;1.80;;
20251;SDS011;10284;58.364;15.550;2024-03-25T10:17:10;4.40;;;1.88;;
20251;SDS011;10284;58.364;15.550;2024-03-25T10:19:36;4.65;;;1.90;;
20251;SDS011;10284;58.364;15.550;2024-03-25T10:22:02;4.72;;;1.85;;
20251;SDS011;10284;58.364;15.550;2024-03-25T10:27:10;4.60;;;1.95;;
20251;SDS011;10284;58.364;15.550;2024-03-25T10:29:56;3.17;;;1.60;;
20251;SDS011;10284;58.364;15.550;2024-03-25T10:32:21;3.65;;;1.95;;
20251;SDS011;10284;58.364;15.550;2024-03-25T10:34:52;2.70;;;1.90;;
20251;SDS011;10284;58.364;15.550;2024-03-25T10:37:18;3.72;;;1.67;;
20251;SDS011;10284;58.364;15.550;2024-03-25T10:39:47;2.67;;;1.90;;
20251;SDS011;10284;58.364;15.550;2024-03-25T10:42:14;4.82;;;1.95;;
20251;SDS011;10284;58.364;15.550;2024-03-25T10:44:43;2.53;;;1.90;;
20251;SDS011;10284;58.364;15.550;2024-03-25T10:47:08;3.17;;;1.80;;
20251;SDS011;10284;58.364;15.550;2024-03-25T10:52:15;5.63;;;1.88;;
20251;SDS011;10284;58.364;15.550;2024-03-25T10:54:42;2.70;;;1.52;;
20251;SDS011;10284;58.364;15.550;2024-03-25T10:57:08;3.45;;;1.95;;
20251;SDS011;10284;58.364;15.550;2024-03-25T10:59:34;3.55;;;2.20;;
20251;SDS011;10284;58.364;15.550;2024-03-25T11:02:03;5.38;;;1.90;;
20251;SDS011;10284;58.364;15.550;2024-03-25T11:04:28;2.85;;;1.73;;
20251;SDS011;10284;58.364;15.550;2024-03-25T11:06:54;2.75;;;1.60;;
20251;SDS011;10284;58.364;15.550;2024-03-25T11:09:23;1.95;;;1.58;;
20251;SDS011;10284;58.364;15.550;2024-03-25T11:11:52;3.30;;;2.10;;
20251;SDS011;10284;58.364;15.550;2024-03-25T11:14:18;4.82;;;2.55;;
20251;SDS011;10284;58.364;15.550;2024-03-25T11:16:50;4.70;;;1.92;;
20251;SDS011;10284;58.364;15.550;2024-03-25T11:19:17;5.07;;;1.65;;
20251;SDS011;10284;58.364;15.550;2024-03-25T11:21:43;4.18;;;1.60;;
20251;SDS011;10284;58.364;15.550;2024-03-25T11:24:08;3.67;;;1.75;;
20251;SDS011;10284;58.364;15.550;2024-03-25T11:26:34;2.15;;;1.80;;
20251;SDS011;10284;58.364;15.550;2024-03-25T11:29:02;5.78;;;2.08;;
20251;SDS011;10284;58.364;15.550;2024-03-25T11:31:28;6.30;;;2.38;;
20251;SDS011;10284;58.364;15.550;2024-03-25T11:33:55;3.53;;;1.92;;
20251;SDS011;10284;58.364;15.550;2024-03-25T11:36:21;2.22;;;1.50;;
20251;SDS011;10284;58.364;15.550;2024-03-25T11:39:02;2.40;;;1.40;;
20251;SDS011;10284;58.364;15.550;2024-03-25T11:41:44;2.30;;;1.40;;
20251;SDS011;10284;58.364;15.550;2024-03-25T11:44:10;3.38;;;1.80;;
20251;SDS011;10284;58.364;15.550;2024-03-25T11:46:37;2.33;;;1.58;;
20251;SDS011;10284;58.364;15.550;2024-03-25T11:49:06;3.58;;;1.52;;
20251;SDS011;10284;58.364;15.550;2024-03-25T11:51:33;4.15;;;1.75;;
20251;SDS011;10284;58.364;15.550;2024-03-25T11:53:59;2.90;;;2.00;;
20251;SDS011;10284;58.364;15.550;2024-03-25T11:56:29;3.95;;;1.73;;
20251;SDS011;10284;58.364;15.550;2024-03-25T11:58:55;4.68;;;1.70;;
20251;SDS011;10284;58.364;15.550;2024-03-25T12:01:21;2.47;;;1.52;;
20251;SDS011;10284;58.364;15.550;2024-03-25T12:03:46;3.75;;;1.80;;
20251;SDS011;10284;58.364;15.550;2024-03-25T12:06:11;3.67;;;1.60;;
20251;SDS011;10284;58.364;15.550;2024-03-25T12:08:37;3.08;;;1.70;;
20251;SDS011;10284;58.364;15.550;2024-03-25T12:11:10;4.68;;;1.52;;
20251;SDS011;10284;58.364;15.550;2024-03-25T12:13:45;3.92;;;1.90;;
20251;SDS011;10284;58.364;15.550;2024-03-25T12:16:10;2.92;;;1.55;;
20251;SDS011;10284;58.364;15.550;2024-03-25T12:18:36;3.42;;;1.50;;
20251;SDS011;10284;58.364;15.550;2024-03-25T12:21:04;1.83;;;1.48;;
20251;SDS011;10284;58.364;15.550;2024-03-25T12:23:30;3.78;;;1.90;;
20251;SDS011;10284;58.364;15.550;2024-03-25T12:25:56;3.63;;;1.70;;
20251;SDS011;10284;58.364;15.550;2024-03-25T12:28:24;4.90;;;1.92;;
20251;SDS011;10284;58.364;15.550;2024-03-25T12:30:53;4.18;;;1.65;;
20251;SDS011;10284;58.364;15.550;2024-03-25T12:33:20;3.63;;;1.80;;
20251;SDS011;10284;58.364;15.550;2024-03-25T12:35:49;4.65;;;1.88;;
20251;SDS011;10284;58.364;15.550;2024-03-25T12:41:11;2.88;;;2.35;;
20251;SDS011;10284;58.364;15.550;2024-03-25T12:43:43;3.05;;;1.65;;
20251;SDS011;10284;58.364;15.550;2024-03-25T12:46:10;4.95;;;2.10;;
20251;SDS011;10284;58.364;15.550;2024-03-25T12:48:36;3.60;;;1.80;;
20251;SDS011;10284;58.364;15.550;2024-03-25T12:51:02;3.88;;;1.55;;
20251;SDS011;10284;58.364;15.550;2024-03-25T12:53:28;5.18;;;1.67;;
20251;SDS011;10284;58.364;15.550;2024-03-25T12:55:53;4.20;;;1.33;;
20251;SDS011;10284;58.364;15.550;2024-03-25T12:58:19;5.78;;;1.90;;
20251;SDS011;10284;58.364;15.550;2024-03-25T13:00:44;3.30;;;1.73;;
20251;SDS011;10284;58.364;15.550;2024-03-25T13:03:10;2.00;;;1.50;;
20251;SDS011;10284;58.364;15.550;2024-03-25T13:05:35;1.95;;;1.40;;
20251;SDS011;10284;58.364;15.550;2024-03-25T13:08:01;4.78;;;1.63;;
20251;SDS011;10284;58.364;15.550;2024-03-25T13:10:27;3.70;;;2.00;;
20251;SDS011;10284;58.364;15.550;2024-03-25T13:12:53;4.65;;;1.88;;
20251;SDS011;10284;58.364;15.550;2024-03-25T13:15:19;3.55;;;1.70;;
20251;SDS011;10284;58.364;15.550;2024-03-25T13:17:45;1.85;;;1.45;;
20251;SDS011;10284;58.364;15.550;2024-03-25T13:20:10;2.42;;;1.27;;
20251;SDS011;10284;58.364;15.550;2024-03-25T13:22:36;3.78;;;1.30;;
20251;SDS011;10284;58.364;15.550;2024-03-25T13:25:03;4.43;;;1.77;;
20251;SDS011;10284;58.364;15.550;2024-03-25T13:27:28;3.25;;;1.50;;
20251;SDS011;10284;58.364;15.550;2024-03-25T13:29:54;2.70;;;1.60;;
20251;SDS011;10284;58.364;15.550;2024-03-25T13:32:19;4.55;;;1.70;;
20251;SDS011;10284;58.364;15.550;2024-03-25T13:34:45;3.45;;;1.55;;
20251;SDS011;10284;58.364;15.550;2024-03-25T13:37:11;5.22;;;1.63;;
20251;SDS011;10284;58.364;15.550;2024-03-25T13:39:36;2.33;;;1.70;;
20251;SDS011;10284;58.364;15.550;2024-03-25T13:42:02;3.53;;;1.80;;
20251;SDS011;10284;58.364;15.550;2024-03-25T13:44:27;4.10;;;1.80;;
20251;SDS011;10284;58.364;15.550;2024-03-25T13:46:53;5.28;;;1.77;;
20251;SDS011;10284;58.364;15.550;2024-03-25T13:49:18;8.95;;;1.77;;
20251;SDS011;10284;58.364;15.550;2024-03-25T13:51:45;3.42;;;1.85;;
20251;SDS011;10284;58.364;15.550;2024-03-25T13:54:10;6.53;;;1.60;;
20251;SDS011;10284;58.364;15.550;2024-03-25T13:56:36;4.07;;;1.75;;
20251;SDS011;10284;58.364;15.550;2024-03-25T13:59:01;4.45;;;1.42;;
20251;SDS011;10284;58.364;15.550;2024-03-25T14:01:26;2.25;;;1.65;;
20251;SDS011;10284;58.364;15.550;2024-03-25T14:03:52;3.20;;;1.70;;
20251;SDS011;10284;58.364;15.550;2024-03-25T14:06:17;4.15;;;1.77;;
20251;SDS011;10284;58.364;15.550;2024-03-25T14:08:43;3.00;;;1.80;;
20251;SDS011;10284;58.364;15.550;2024-03-25T14:11:08;4.63;;;1.63;;
20251;SDS011;10284;58.364;15.550;2024-03-25T14:13:34;2.58;;;1.70;;
20251;SDS011;10284;58.364;15.550;2024-03-25T14:15:59;4.47;;;1.52;;
20251;SDS011;10284;58.364;15.550;2024-03-25T14:18:25;3.15;;;1.55;;
20251;SDS011;10284;58.364;15.550;2024-03-25T14:20:53;6.15;;;1.90;;
20251;SDS011;10284;58.364;15.550;2024-03-25T14:23:18;4.53;;;1.73;;
20251;SDS011;10284;58.364;15.550;2024-03-25T14:25:44;3.25;;;1.80;;
20251;SDS011;10284;58.364;15.550;2024-03-25T14:28:09;5.80;;;1.52;;
20251;SDS011;10284;58.364;15.550;2024-03-25T14:30:35;2.63;;;1.60;;
20251;SDS011;10284;58.364;15.550;2024-03-25T14:33:00;1.85;;;1.40;;
20251;SDS011;10284;58.364;15.550;2024-03-25T14:35:26;4.57;;;1.70;;
20251;SDS011;10284;58.364;15.550;2024-03-25T14:37:51;3.80;;;1.60;;